sensor_id;sensor_type;location;lat;lon;timestamp;P1;durP1;ratioP1;P2;durP2;ratioP2
75129;SDS011;63703;44.716;37.846;2023-03-23T00:01:57;15.38;;;5.57;;
75129;SDS011;63703;44.716;37.846;2023-03-23T00:04:23;15.88;;;5.88;;
75129;SDS011;63703;44.716;37.846;2023-03-23T00:06:52;13.77;;;6.18;;
75129;SDS011;63703;44.716;37.846;2023-03-23T00:09:18;10.60;;;4.43;;
75129;SDS011;63703;44.716;37.846;2023-03-23T00:14:16;12.18;;;4.95;;
75129;SDS011;63703;44.716;37.846;2023-03-23T00:16:42;13.30;;;6.13;;
75129;SDS011;63703;44.716;37.846;2023-03-23T00:19:09;13.95;;;5.13;;
75129;SDS011;63703;44.716;37.846;2023-03-23T00:21:40;11.93;;;5.22;;
75129;SDS011;63703;44.716;37.846;2023-03-23T00:24:15;15.00;;;5.78;;
75129;SDS011;63703;44.716;37.846;2023-03-23T00:26:43;18.00;;;5.38;;
75129;SDS011;63703;44.716;37.846;2023-03-23T00:29:14;14.25;;;5.32;;
75129;SDS011;63703;44.716;37.846;2023-03-23T00:31:43;13.70;;;6.18;;
75129;SDS011;63703;44.716;37.846;2023-03-23T00:34:12;11.98;;;5.22;;
75129;SDS011;63703;44.716;37.846;2023-03-23T00:36:48;16.80;;;6.28;;
75129;SDS011;63703;44.716;37.846;2023-03-23T00:39:16;12.18;;;5.20;;
75129;SDS011;63703;44.716;37.846;2023-03-23T00:41:43;16.33;;;5.65;;
75129;SDS011;63703;44.716;37.846;2023-03-23T00:44:09;12.30;;;4.45;;
75129;SDS011;63703;44.716;37.846;2023-03-23T00:46:42;12.02;;;4.95;;
75129;SDS011;63703;44.716;37.846;2023-03-23T00:49:15;11.65;;;5.82;;
75129;SDS011;63703;44.716;37.846;2023-03-23T00:51:42;12.75;;;4.25;;
75129;SDS011;63703;44.716;37.846;2023-03-23T00:54:09;15.75;;;5.13;;
75129;SDS011;63703;44.716;37.846;2023-03-23T00:56:35;16.15;;;5.35;;
75129;SDS011;63703;44.716;37.846;2023-03-23T00:59:02;13.05;;;5.20;;
75129;SDS011;63703;44.716;37.846;2023-03-23T01:01:29;13.68;;;5.30;;
75129;SDS011;63703;44.716;37.846;2023-03-23T01:03:57;16.25;;;5.72;;
75129;SDS011;63703;44.716;37.846;2023-03-23T01:06:29;17.92;;;5.78;;
75129;SDS011;63703;44.716;37.846;2023-03-23T01:08:57;17.90;;;6.28;;
75129;SDS011;63703;44.716;37.846;2023-03-23T01:11:24;13.85;;;6.70;;
75129;SDS011;63703;44.716;37.846;2023-03-23T01:13:50;16.80;;;6.35;;
75129;SDS011;63703;44.716;37.846;2023-03-23T01:16:19;15.07;;;7.13;;
75129;SDS011;63703;44.716;37.846;2023-03-23T01:18:46;20.65;;;6.45;;
75129;SDS011;63703;44.716;37.846;2023-03-23T01:21:13;15.70;;;7.13;;
75129;SDS011;63703;44.716;37.846;2023-03-23T01:23:41;14.25;;;5.72;;
75129;SDS011;63703;44.716;37.846;2023-03-23T01:26:08;14.57;;;4.97;;
75129;SDS011;63703;44.716;37.846;2023-03-23T01:28:39;11.05;;;5.53;;
75129;SDS011;63703;44.716;37.846;2023-03-23T01:31:07;14.52;;;6.20;;
75129;SDS011;63703;44.716;37.846;2023-03-23T01:33:35;15.63;;;5.75;;
75129;SDS011;63703;44.716;37.846;2023-03-23T01:36:02;12.98;;;5.70;;
75129;SDS011;63703;44.716;37.846;2023-03-23T01:38:33;11.60;;;5.10;;
75129;SDS011;63703;44.716;37.846;2023-03-23T01:41:00;11.98;;;4.43;;
75129;SDS011;63703;44.716;37.846;2023-03-23T01:43:27;11.07;;;4.55;;
75129;SDS011;63703;44.716;37.846;2023-03-23T01:45:53;11.80;;;4.35;;
75129;SDS011;63703;44.716;37.846;2023-03-23T01:51:02;13.50;;;4.47;;
75129;SDS011;63703;44.716;37.846;2023-03-23T01:53:42;11.98;;;5.03;;
75129;SDS011;63703;44.716;37.846;2023-03-23T01:56:14;12.18;;;4.43;;
75129;SDS011;63703;44.716;37.846;2023-03-23T01:58:44;11.07;;;4.82;;
75129;SDS011;63703;44.716;37.846;2023-03-23T02:01:11;10.18;;;5.35;;
75129;SDS011;63703;44.716;37.846;2023-03-23T02:03:41;10.60;;;5.25;;
75129;SDS011;63703;44.716;37.846;2023-03-23T02:06:10;14.10;;;4.78;;
75129;SDS011;63703;44.716;37.846;2023-03-23T02:08:53;15.95;;;6.03;;
75129;SDS011;63703;44.716;37.846;2023-03-23T02:11:21;15.05;;;6.22;;
75129;SDS011;63703;44.716;37.846;2023-03-23T02:13:48;11.45;;;5.35;;
75129;SDS011;63703;44.716;37.846;2023-03-23T02:19:31;10.70;;;4.95;;
75129;SDS011;63703;44.716;37.846;2023-03-23T02:22:26;10.02;;;6.03;;
75129;SDS011;63703;44.716;37.846;2023-03-23T02:28:15;14.60;;;5.30;;
75129;SDS011;63703;44.716;37.846;2023-03-23T02:36:28;14.27;;;5.43;;
75129;SDS011;63703;44.716;37.846;2023-03-23T02:39:03;12.13;;;5.15;;
75129;SDS011;63703;44.716;37.846;2023-03-23T02:41:39;16.88;;;6.10;;
75129;SDS011;63703;44.716;37.846;2023-03-23T02:44:09;14.38;;;6.70;;
75129;SDS011;63703;44.716;37.846;2023-03-23T02:46:37;13.55;;;6.25;;
75129;SDS011;63703;44.716;37.846;2023-03-23T02:49:06;12.35;;;6.38;;
75129;SDS011;63703;44.716;37.846;2023-03-23T02:51:34;20.42;;;7.85;;
75129;SDS011;63703;44.716;37.846;2023-03-23T02:54:02;17.60;;;7.30;;
75129;SDS011;63703;44.716;37.846;2023-03-23T02:56:31;21.77;;;8.43;;
75129;SDS011;63703;44.716;37.846;2023-03-23T02:59:00;18.95;;;7.82;;
75129;SDS011;63703;44.716;37.846;2023-03-23T03:03:54;15.20;;;7.78;;
75129;SDS011;63703;44.716;37.846;2023-03-23T03:06:26;18.25;;;7.43;;
75129;SDS011;63703;44.716;37.846;2023-03-23T03:08:55;18.58;;;9.02;;
75129;SDS011;63703;44.716;37.846;2023-03-23T03:11:30;15.60;;;9.25;;
75129;SDS011;63703;44.716;37.846;2023-03-23T03:14:02;18.42;;;8.18;;
75129;SDS011;63703;44.716;37.846;2023-03-23T03:22:00;16.90;;;6.72;;
75129;SDS011;63703;44.716;37.846;2023-03-23T03:24:39;17.48;;;7.35;;
75129;SDS011;63703;44.716;37.846;2023-03-23T03:27:18;18.17;;;6.72;;
75129;SDS011;63703;44.716;37.846;2023-03-23T03:32:22;20.35;;;8.63;;
75129;SDS011;63703;44.716;37.846;2023-03-23T03:34:58;14.60;;;7.05;;
75129;SDS011;63703;44.716;37.846;2023-03-23T03:37:26;14.90;;;5.78;;
75129;SDS011;63703;44.716;37.846;2023-03-23T03:39:52;12.73;;;5.82;;
75129;SDS011;63703;44.716;37.846;2023-03-23T03:42:18;14.07;;;6.00;;
75129;SDS011;63703;44.716;37.846;2023-03-23T03:44:44;13.00;;;5.90;;
75129;SDS011;63703;44.716;37.846;2023-03-23T03:47:10;16.85;;;6.20;;
75129;SDS011;63703;44.716;37.846;2023-03-23T03:49:37;16.35;;;6.55;;
75129;SDS011;63703;44.716;37.846;2023-03-23T03:52:03;16.40;;;6.07;;
75129;SDS011;63703;44.716;37.846;2023-03-23T03:54:39;17.10;;;6.80;;
75129;SDS011;63703;44.716;37.846;2023-03-23T03:57:06;17.73;;;7.43;;
75129;SDS011;63703;44.716;37.846;2023-03-23T03:59:33;17.45;;;6.03;;
75129;SDS011;63703;44.716;37.846;2023-03-23T04:02:25;14.75;;;7.13;;
75129;SDS011;63703;44.716;37.846;2023-03-23T04:04:53;13.63;;;5.90;;
75129;SDS011;63703;44.716;37.846;2023-03-23T04:07:19;10.27;;;4.97;;
75129;SDS011;63703;44.716;37.846;2023-03-23T04:09:48;13.32;;;5.35;;
75129;SDS011;63703;44.716;37.846;2023-03-23T04:12:17;12.43;;;5.78;;
75129;SDS011;63703;44.716;37.846;2023-03-23T04:14:55;11.00;;;5.78;;
75129;SDS011;63703;44.716;37.846;2023-03-23T04:17:25;15.90;;;5.95;;
75129;SDS011;63703;44.716;37.846;2023-03-23T04:19:52;13.30;;;5.15;;
75129;SDS011;63703;44.716;37.846;2023-03-23T04:22:23;10.80;;;4.53;;
75129;SDS011;63703;44.716;37.846;2023-03-23T04:24:59;15.27;;;5.82;;
75129;SDS011;63703;44.716;37.846;2023-03-23T04:27:30;9.85;;;4.97;;
75129;SDS011;63703;44.716;37.846;2023-03-23T04:29:58;9.68;;;4.85;;
75129;SDS011;63703;44.716;37.846;2023-03-23T04:32:45;14.32;;;6.15;;
75129;SDS011;63703;44.716;37.846;2023-03-23T04:35:16;17.48;;;6.05;;
75129;SDS011;63703;44.716;37.846;2023-03-23T04:37:49;12.70;;;5.82;;
75129;SDS011;63703;44.716;37.846;2023-03-23T04:40:18;15.70;;;6.88;;
75129;SDS011;63703;44.716;37.846;2023-03-23T04:42:55;17.38;;;6.95;;
75129;SDS011;63703;44.716;37.846;2023-03-23T04:45:52;18.90;;;7.13;;
75129;SDS011;63703;44.716;37.846;2023-03-23T04:48:24;16.70;;;5.70;;
75129;SDS011;63703;44.716;37.846;2023-03-23T04:51:11;15.98;;;7.85;;
75129;SDS011;63703;44.716;37.846;2023-03-23T04:53:39;14.95;;;6.82;;
75129;SDS011;63703;44.716;37.846;2023-03-23T04:56:06;12.93;;;5.15;;
75129;SDS011;63703;44.716;37.846;2023-03-23T04:58:39;14.82;;;6.63;;
75129;SDS011;63703;44.716;37.846;2023-03-23T05:01:20;23.40;;;8.68;;
75129;SDS011;63703;44.716;37.846;2023-03-23T05:04:12;17.85;;;7.90;;
75129;SDS011;63703;44.716;37.846;2023-03-23T05:06:47;21.35;;;7.55;;
75129;SDS011;63703;44.716;37.846;2023-03-23T05:09:20;19.92;;;7.18;;
75129;SDS011;63703;44.716;37.846;2023-03-23T05:11:47;21.55;;;8.57;;
75129;SDS011;63703;44.716;37.846;2023-03-23T05:14:14;17.17;;;8.10;;
75129;SDS011;63703;44.716;37.846;2023-03-23T05:16:43;17.35;;;7.05;;
75129;SDS011;63703;44.716;37.846;2023-03-23T05:19:14;17.70;;;8.07;;
75129;SDS011;63703;44.716;37.846;2023-03-23T05:21:40;16.85;;;9.20;;
75129;SDS011;63703;44.716;37.846;2023-03-23T05:24:07;24.92;;;12.15;;
75129;SDS011;63703;44.716;37.846;2023-03-23T05:26:33;19.02;;;10.27;;
75129;SDS011;63703;44.716;37.846;2023-03-23T05:29:05;24.50;;;10.77;;
75129;SDS011;63703;44.716;37.846;2023-03-23T05:31:44;20.52;;;8.75;;
75129;SDS011;63703;44.716;37.846;2023-03-23T05:34:11;17.15;;;8.90;;
75129;SDS011;63703;44.716;37.846;2023-03-23T05:36:45;17.85;;;8.98;;
75129;SDS011;63703;44.716;37.846;2023-03-23T05:39:25;15.77;;;7.22;;
75129;SDS011;63703;44.716;37.846;2023-03-23T05:42:14;18.60;;;8.05;;
75129;SDS011;63703;44.716;37.846;2023-03-23T05:45:07;17.55;;;8.45;;
75129;SDS011;63703;44.716;37.846;2023-03-23T05:47:36;16.45;;;7.53;;
75129;SDS011;63703;44.716;37.846;2023-03-23T05:50:10;16.17;;;7.45;;
75129;SDS011;63703;44.716;37.846;2023-03-23T05:52:38;20.95;;;6.95;;
75129;SDS011;63703;44.716;37.846;2023-03-23T05:55:08;19.10;;;8.02;;
75129;SDS011;63703;44.716;37.846;2023-03-23T05:57:37;16.48;;;8.20;;
75129;SDS011;63703;44.716;37.846;2023-03-23T06:00:16;19.10;;;7.25;;
75129;SDS011;63703;44.716;37.846;2023-03-23T06:02:54;16.48;;;7.18;;
75129;SDS011;63703;44.716;37.846;2023-03-23T06:05:29;19.73;;;7.85;;
75129;SDS011;63703;44.716;37.846;2023-03-23T06:07:57;18.20;;;8.15;;
75129;SDS011;63703;44.716;37.846;2023-03-23T06:10:23;23.98;;;10.57;;
75129;SDS011;63703;44.716;37.846;2023-03-23T06:12:56;27.00;;;12.48;;
75129;SDS011;63703;44.716;37.846;2023-03-23T06:15:30;23.00;;;11.05;;
75129;SDS011;63703;44.716;37.846;2023-03-23T06:18:15;22.48;;;10.25;;
75129;SDS011;63703;44.716;37.846;2023-03-23T06:21:10;22.67;;;8.60;;
75129;SDS011;63703;44.716;37.846;2023-03-23T06:23:56;19.90;;;7.25;;
75129;SDS011;63703;44.716;37.846;2023-03-23T06:26:28;25.70;;;10.95;;
75129;SDS011;63703;44.716;37.846;2023-03-23T06:28:59;20.23;;;9.25;;
75129;SDS011;63703;44.716;37.846;2023-03-23T06:31:28;14.75;;;6.88;;
75129;SDS011;63703;44.716;37.846;2023-03-23T06:33:54;15.55;;;8.18;;
75129;SDS011;63703;44.716;37.846;2023-03-23T06:36:24;19.45;;;7.97;;
75129;SDS011;63703;44.716;37.846;2023-03-23T06:39:30;13.43;;;7.03;;
75129;SDS011;63703;44.716;37.846;2023-03-23T06:42:13;14.63;;;6.60;;
75129;SDS011;63703;44.716;37.846;2023-03-23T06:44:45;13.52;;;5.53;;
75129;SDS011;63703;44.716;37.846;2023-03-23T06:47:12;10.45;;;5.40;;
75129;SDS011;63703;44.716;37.846;2023-03-23T06:49:44;13.18;;;5.95;;
75129;SDS011;63703;44.716;37.846;2023-03-23T06:52:20;17.73;;;5.97;;
75129;SDS011;63703;44.716;37.846;2023-03-23T06:54:48;15.80;;;6.13;;
75129;SDS011;63703;44.716;37.846;2023-03-23T06:57:15;11.77;;;5.47;;
75129;SDS011;63703;44.716;37.846;2023-03-23T06:59:44;14.05;;;6.10;;
75129;SDS011;63703;44.716;37.846;2023-03-23T07:02:10;11.90;;;5.35;;
75129;SDS011;63703;44.716;37.846;2023-03-23T07:04:37;13.80;;;5.55;;
75129;SDS011;63703;44.716;37.846;2023-03-23T07:07:09;11.35;;;4.60;;
75129;SDS011;63703;44.716;37.846;2023-03-23T07:09:45;13.63;;;5.40;;
75129;SDS011;63703;44.716;37.846;2023-03-23T07:12:13;14.55;;;5.57;;
75129;SDS011;63703;44.716;37.846;2023-03-23T07:14:45;10.95;;;4.30;;
75129;SDS011;63703;44.716;37.846;2023-03-23T07:17:11;22.08;;;4.05;;
75129;SDS011;63703;44.716;37.846;2023-03-23T07:19:43;11.40;;;3.97;;
75129;SDS011;63703;44.716;37.846;2023-03-23T07:22:13;9.48;;;3.90;;
75129;SDS011;63703;44.716;37.846;2023-03-23T07:24:42;12.55;;;4.13;;
75129;SDS011;63703;44.716;37.846;2023-03-23T07:27:17;9.32;;;4.10;;
75129;SDS011;63703;44.716;37.846;2023-03-23T07:29:43;10.88;;;3.67;;
75129;SDS011;63703;44.716;37.846;2023-03-23T07:32:17;10.25;;;3.72;;
75129;SDS011;63703;44.716;37.846;2023-03-23T07:34:43;13.60;;;4.82;;
75129;SDS011;63703;44.716;37.846;2023-03-23T07:37:24;10.85;;;4.75;;
75129;SDS011;63703;44.716;37.846;2023-03-23T07:39:50;9.02;;;5.22;;
75129;SDS011;63703;44.716;37.846;2023-03-23T07:42:17;12.85;;;4.05;;
75129;SDS011;63703;44.716;37.846;2023-03-23T07:44:51;9.57;;;3.10;;
75129;SDS011;63703;44.716;37.846;2023-03-23T07:47:17;11.55;;;4.10;;
75129;SDS011;63703;44.716;37.846;2023-03-23T07:49:45;7.15;;;3.20;;
75129;SDS011;63703;44.716;37.846;2023-03-23T07:52:26;11.52;;;4.00;;
75129;SDS011;63703;44.716;37.846;2023-03-23T07:54:52;10.02;;;4.20;;
75129;SDS011;63703;44.716;37.846;2023-03-23T07:57:44;10.18;;;3.75;;
75129;SDS011;63703;44.716;37.846;2023-03-23T08:00:13;12.55;;;4.53;;
75129;SDS011;63703;44.716;37.846;2023-03-23T08:02:45;11.35;;;4.65;;
75129;SDS011;63703;44.716;37.846;2023-03-23T08:05:38;12.40;;;3.13;;
75129;SDS011;63703;44.716;37.846;2023-03-23T08:08:26;19.60;;;4.15;;
75129;SDS011;63703;44.716;37.846;2023-03-23T08:11:15;19.63;;;4.35;;
75129;SDS011;63703;44.716;37.846;2023-03-23T08:13:42;13.63;;;5.20;;
75129;SDS011;63703;44.716;37.846;2023-03-23T08:16:47;9.43;;;3.67;;
75129;SDS011;63703;44.716;37.846;2023-03-23T08:19:33;10.88;;;3.42;;
75129;SDS011;63703;44.716;37.846;2023-03-23T08:22:22;9.20;;;4.35;;
75129;SDS011;63703;44.716;37.846;2023-03-23T08:25:07;11.43;;;3.53;;
75129;SDS011;63703;44.716;37.846;2023-03-23T08:27:54;10.02;;;4.45;;
75129;SDS011;63703;44.716;37.846;2023-03-23T08:30:38;10.02;;;4.22;;
75129;SDS011;63703;44.716;37.846;2023-03-23T08:33:28;14.50;;;4.18;;
75129;SDS011;63703;44.716;37.846;2023-03-23T08:36:17;10.18;;;3.88;;
75129;SDS011;63703;44.716;37.846;2023-03-23T08:39:18;6.85;;;3.08;;
75129;SDS011;63703;44.716;37.846;2023-03-23T08:41:53;9.35;;;4.78;;
75129;SDS011;63703;44.716;37.846;2023-03-23T08:44:52;10.45;;;4.00;;
75129;SDS011;63703;44.716;37.846;2023-03-23T08:47:37;11.90;;;4.45;;
75129;SDS011;63703;44.716;37.846;2023-03-23T08:50:29;11.05;;;3.75;;
75129;SDS011;63703;44.716;37.846;2023-03-23T08:53:14;9.25;;;3.97;;
75129;SDS011;63703;44.716;37.846;2023-03-23T08:55:40;9.60;;;4.40;;
75129;SDS011;63703;44.716;37.846;2023-03-23T08:58:18;9.50;;;3.92;;
75129;SDS011;63703;44.716;37.846;2023-03-23T09:00:44;9.60;;;4.60;;
75129;SDS011;63703;44.716;37.846;2023-03-23T09:03:37;9.52;;;3.13;;
75129;SDS011;63703;44.716;37.846;2023-03-23T09:06:19;9.20;;;3.63;;
75129;SDS011;63703;44.716;37.846;2023-03-23T09:08:52;8.80;;;4.13;;
75129;SDS011;63703;44.716;37.846;2023-03-23T09:11:20;19.63;;;3.60;;
75129;SDS011;63703;44.716;37.846;2023-03-23T09:13:46;8.55;;;3.03;;
75129;SDS011;63703;44.716;37.846;2023-03-23T09:16:12;7.78;;;3.22;;
75129;SDS011;63703;44.716;37.846;2023-03-23T09:18:38;13.43;;;4.05;;
75129;SDS011;63703;44.716;37.846;2023-03-23T09:21:04;9.07;;;4.00;;
75129;SDS011;63703;44.716;37.846;2023-03-23T09:23:30;8.43;;;2.78;;
75129;SDS011;63703;44.716;37.846;2023-03-23T09:25:57;7.20;;;2.90;;
75129;SDS011;63703;44.716;37.846;2023-03-23T09:28:24;13.30;;;3.90;;
75129;SDS011;63703;44.716;37.846;2023-03-23T09:30:50;11.13;;;3.78;;
75129;SDS011;63703;44.716;37.846;2023-03-23T09:33:16;9.60;;;4.43;;
75129;SDS011;63703;44.716;37.846;2023-03-23T09:35:42;9.00;;;3.45;;
75129;SDS011;63703;44.716;37.846;2023-03-23T09:38:10;9.60;;;4.25;;
75129;SDS011;63703;44.716;37.846;2023-03-23T09:48:52;6.93;;;2.90;;
75129;SDS011;63703;44.716;37.846;2023-03-23T09:54:26;8.48;;;2.75;;
75129;SDS011;63703;44.716;37.846;2023-03-23T09:56:55;11.63;;;3.88;;
75129;SDS011;63703;44.716;37.846;2023-03-23T09:59:38;9.27;;;3.60;;
75129;SDS011;63703;44.716;37.846;2023-03-23T10:02:19;9.98;;;3.38;;
75129;SDS011;63703;44.716;37.846;2023-03-23T10:04:51;8.63;;;2.90;;
75129;SDS011;63703;44.716;37.846;2023-03-23T10:07:25;10.20;;;4.05;;
75129;SDS011;63703;44.716;37.846;2023-03-23T10:09:54;6.20;;;3.40;;
75129;SDS011;63703;44.716;37.846;2023-03-23T10:17:44;8.35;;;4.30;;
75129;SDS011;63703;44.716;37.846;2023-03-23T10:25:36;7.40;;;3.80;;
75129;SDS011;63703;44.716;37.846;2023-03-23T10:28:09;8.32;;;2.88;;
75129;SDS011;63703;44.716;37.846;2023-03-23T10:31:02;5.57;;;2.85;;
75129;SDS011;63703;44.716;37.846;2023-03-23T10:33:29;5.95;;;2.67;;
75129;SDS011;63703;44.716;37.846;2023-03-23T10:38:53;5.65;;;2.03;;
75129;SDS011;63703;44.716;37.846;2023-03-23T10:41:28;5.38;;;2.78;;
75129;SDS011;63703;44.716;37.846;2023-03-23T10:43:54;6.47;;;2.90;;
75129;SDS011;63703;44.716;37.846;2023-03-23T10:46:29;5.43;;;3.08;;
75129;SDS011;63703;44.716;37.846;2023-03-23T10:49:01;6.78;;;2.53;;
75129;SDS011;63703;44.716;37.846;2023-03-23T10:51:33;5.15;;;2.53;;
75129;SDS011;63703;44.716;37.846;2023-03-23T10:54:03;8.90;;;2.42;;
75129;SDS011;63703;44.716;37.846;2023-03-23T10:56:41;6.57;;;2.47;;
75129;SDS011;63703;44.716;37.846;2023-03-23T10:59:20;6.63;;;2.60;;
75129;SDS011;63703;44.716;37.846;2023-03-23T11:01:48;7.78;;;2.78;;
75129;SDS011;63703;44.716;37.846;2023-03-23T11:04:16;6.55;;;2.63;;
75129;SDS011;63703;44.716;37.846;2023-03-23T11:06:48;4.85;;;2.22;;
75129;SDS011;63703;44.716;37.846;2023-03-23T11:09:19;6.63;;;2.58;;
75129;SDS011;63703;44.716;37.846;2023-03-23T11:11:53;4.95;;;2.25;;
75129;SDS011;63703;44.716;37.846;2023-03-23T11:14:34;9.55;;;3.17;;
75129;SDS011;63703;44.716;37.846;2023-03-23T11:17:04;6.93;;;2.97;;
75129;SDS011;63703;44.716;37.846;2023-03-23T11:19:45;10.65;;;4.63;;
75129;SDS011;63703;44.716;37.846;2023-03-23T11:22:31;8.98;;;3.47;;
75129;SDS011;63703;44.716;37.846;2023-03-23T11:25:02;9.85;;;4.25;;
75129;SDS011;63703;44.716;37.846;2023-03-23T11:27:30;10.13;;;3.00;;
75129;SDS011;63703;44.716;37.846;2023-03-23T11:30:01;8.85;;;3.67;;
75129;SDS011;63703;44.716;37.846;2023-03-23T11:32:51;8.73;;;4.63;;
75129;SDS011;63703;44.716;37.846;2023-03-23T11:35:20;9.63;;;3.42;;
75129;SDS011;63703;44.716;37.846;2023-03-23T11:37:49;10.90;;;4.05;;
75129;SDS011;63703;44.716;37.846;2023-03-23T11:40:20;10.25;;;3.13;;
75129;SDS011;63703;44.716;37.846;2023-03-23T11:42:58;6.90;;;2.88;;
75129;SDS011;63703;44.716;37.846;2023-03-23T11:45:38;9.73;;;3.78;;
75129;SDS011;63703;44.716;37.846;2023-03-23T11:48:28;12.88;;;3.95;;
75129;SDS011;63703;44.716;37.846;2023-03-23T11:58:56;5.82;;;3.78;;
75129;SDS011;63703;44.716;37.846;2023-03-23T12:01:37;8.95;;;4.25;;
75129;SDS011;63703;44.716;37.846;2023-03-23T12:04:37;10.77;;;3.38;;
75129;SDS011;63703;44.716;37.846;2023-03-23T12:07:15;7.55;;;3.05;;
75129;SDS011;63703;44.716;37.846;2023-03-23T12:12:48;5.63;;;2.88;;
75129;SDS011;63703;44.716;37.846;2023-03-23T12:26:26;6.85;;;3.85;;
75129;SDS011;63703;44.716;37.846;2023-03-23T12:31:46;8.15;;;3.83;;
75129;SDS011;63703;44.716;37.846;2023-03-23T12:51:08;8.43;;;4.47;;
75129;SDS011;63703;44.716;37.846;2023-03-23T13:01:43;10.05;;;4.38;;
75129;SDS011;63703;44.716;37.846;2023-03-23T13:04:14;11.38;;;5.35;;
75129;SDS011;63703;44.716;37.846;2023-03-23T13:06:45;13.90;;;5.60;;
75129;SDS011;63703;44.716;37.846;2023-03-23T13:12:32;9.45;;;4.68;;
75129;SDS011;63703;44.716;37.846;2023-03-23T13:15:05;10.52;;;5.20;;
75129;SDS011;63703;44.716;37.846;2023-03-23T13:23:25;11.30;;;4.78;;
75129;SDS011;63703;44.716;37.846;2023-03-23T13:31:22;10.95;;;5.65;;
75129;SDS011;63703;44.716;37.846;2023-03-23T13:34:38;10.63;;;5.43;;
75129;SDS011;63703;44.716;37.846;2023-03-23T13:36:53;11.00;;;5.22;;
75129;SDS011;63703;44.716;37.846;2023-03-23T13:44:43;13.02;;;5.88;;
75129;SDS011;63703;44.716;37.846;2023-03-23T13:49:56;13.00;;;6.20;;
75129;SDS011;63703;44.716;37.846;2023-03-23T13:54:50;13.13;;;6.05;;
75129;SDS011;63703;44.716;37.846;2023-03-23T13:59:56;14.13;;;6.10;;
75129;SDS011;63703;44.716;37.846;2023-03-23T14:02:37;12.38;;;6.28;;
75129;SDS011;63703;44.716;37.846;2023-03-23T14:05:25;12.63;;;7.07;;
75129;SDS011;63703;44.716;37.846;2023-03-23T14:10:34;13.82;;;6.65;;
75129;SDS011;63703;44.716;37.846;2023-03-23T14:13:09;12.80;;;4.90;;
75129;SDS011;63703;44.716;37.846;2023-03-23T14:15:58;16.08;;;6.50;;
75129;SDS011;63703;44.716;37.846;2023-03-23T14:18:31;12.55;;;6.07;;
75129;SDS011;63703;44.716;37.846;2023-03-23T14:21:01;16.23;;;7.82;;
75129;SDS011;63703;44.716;37.846;2023-03-23T14:23:30;14.10;;;6.90;;
75129;SDS011;63703;44.716;37.846;2023-03-23T14:26:05;17.63;;;7.80;;
75129;SDS011;63703;44.716;37.846;2023-03-23T14:28:37;14.65;;;6.82;;
75129;SDS011;63703;44.716;37.846;2023-03-23T14:31:05;13.45;;;7.28;;
75129;SDS011;63703;44.716;37.846;2023-03-23T14:33:41;17.65;;;7.22;;
75129;SDS011;63703;44.716;37.846;2023-03-23T14:36:07;19.67;;;7.22;;
75129;SDS011;63703;44.716;37.846;2023-03-23T14:38:33;17.77;;;8.18;;
75129;SDS011;63703;44.716;37.846;2023-03-23T14:41:03;11.57;;;6.43;;
75129;SDS011;63703;44.716;37.846;2023-03-23T14:43:30;16.63;;;7.93;;
75129;SDS011;63703;44.716;37.846;2023-03-23T14:46:00;19.30;;;9.65;;
75129;SDS011;63703;44.716;37.846;2023-03-23T14:48:27;18.90;;;8.38;;
75129;SDS011;63703;44.716;37.846;2023-03-23T14:50:58;15.73;;;7.78;;
75129;SDS011;63703;44.716;37.846;2023-03-23T14:56:00;21.30;;;8.18;;
75129;SDS011;63703;44.716;37.846;2023-03-23T14:58:30;18.33;;;8.32;;
75129;SDS011;63703;44.716;37.846;2023-03-23T15:00:58;14.88;;;7.72;;
75129;SDS011;63703;44.716;37.846;2023-03-23T15:03:37;19.98;;;9.27;;
75129;SDS011;63703;44.716;37.846;2023-03-23T15:06:15;19.48;;;10.30;;
75129;SDS011;63703;44.716;37.846;2023-03-23T15:08:45;17.13;;;9.82;;
75129;SDS011;63703;44.716;37.846;2023-03-23T15:13:43;30.13;;;11.80;;
75129;SDS011;63703;44.716;37.846;2023-03-23T15:16:20;28.63;;;12.00;;
75129;SDS011;63703;44.716;37.846;2023-03-23T15:19:11;20.67;;;8.63;;
75129;SDS011;63703;44.716;37.846;2023-03-23T15:24:34;21.58;;;10.38;;
75129;SDS011;63703;44.716;37.846;2023-03-23T15:29:45;26.77;;;9.93;;
75129;SDS011;63703;44.716;37.846;2023-03-23T15:32:20;23.90;;;10.02;;
75129;SDS011;63703;44.716;37.846;2023-03-23T15:34:57;20.27;;;11.23;;
75129;SDS011;63703;44.716;37.846;2023-03-23T15:37:31;20.42;;;10.45;;
75129;SDS011;63703;44.716;37.846;2023-03-23T15:39:57;27.50;;;12.63;;
75129;SDS011;63703;44.716;37.846;2023-03-23T15:42:26;27.55;;;12.63;;
75129;SDS011;63703;44.716;37.846;2023-03-23T15:44:56;30.77;;;12.07;;
75129;SDS011;63703;44.716;37.846;2023-03-23T15:52:52;24.48;;;12.32;;
75129;SDS011;63703;44.716;37.846;2023-03-23T15:55:19;27.02;;;11.90;;
75129;SDS011;63703;44.716;37.846;2023-03-23T15:58:00;33.15;;;12.65;;
75129;SDS011;63703;44.716;37.846;2023-03-23T16:00:30;34.17;;;11.18;;
75129;SDS011;63703;44.716;37.846;2023-03-23T16:02:58;27.02;;;12.05;;
75129;SDS011;63703;44.716;37.846;2023-03-23T16:05:26;26.38;;;13.35;;
75129;SDS011;63703;44.716;37.846;2023-03-23T16:07:53;23.65;;;10.73;;
75129;SDS011;63703;44.716;37.846;2023-03-23T16:10:21;23.73;;;10.38;;
75129;SDS011;63703;44.716;37.846;2023-03-23T16:12:48;22.98;;;10.85;;
75129;SDS011;63703;44.716;37.846;2023-03-23T16:15:15;20.58;;;10.13;;
75129;SDS011;63703;44.716;37.846;2023-03-23T16:17:41;19.58;;;8.93;;
75129;SDS011;63703;44.716;37.846;2023-03-23T16:20:27;24.25;;;11.45;;
75129;SDS011;63703;44.716;37.846;2023-03-23T16:22:53;23.98;;;11.48;;
75129;SDS011;63703;44.716;37.846;2023-03-23T16:25:20;21.48;;;12.57;;
75129;SDS011;63703;44.716;37.846;2023-03-23T16:27:46;28.50;;;12.45;;
75129;SDS011;63703;44.716;37.846;2023-03-23T16:32:41;24.83;;;11.60;;
75129;SDS011;63703;44.716;37.846;2023-03-23T16:35:08;27.50;;;12.45;;
75129;SDS011;63703;44.716;37.846;2023-03-23T16:37:35;29.58;;;16.17;;
75129;SDS011;63703;44.716;37.846;2023-03-23T16:40:01;34.67;;;14.27;;
75129;SDS011;63703;44.716;37.846;2023-03-23T16:42:28;26.87;;;12.37;;
75129;SDS011;63703;44.716;37.846;2023-03-23T16:44:54;26.20;;;12.35;;
75129;SDS011;63703;44.716;37.846;2023-03-23T16:47:20;26.67;;;12.55;;
75129;SDS011;63703;44.716;37.846;2023-03-23T16:49:50;26.02;;;12.88;;
75129;SDS011;63703;44.716;37.846;2023-03-23T16:52:17;26.88;;;14.48;;
75129;SDS011;63703;44.716;37.846;2023-03-23T16:54:43;38.13;;;18.52;;
75129;SDS011;63703;44.716;37.846;2023-03-23T16:57:09;38.03;;;17.60;;
75129;SDS011;63703;44.716;37.846;2023-03-23T16:59:36;39.25;;;18.13;;
75129;SDS011;63703;44.716;37.846;2023-03-23T17:02:02;31.83;;;11.65;;
75129;SDS011;63703;44.716;37.846;2023-03-23T17:04:29;27.83;;;10.10;;
75129;SDS011;63703;44.716;37.846;2023-03-23T17:06:56;24.75;;;8.23;;
75129;SDS011;63703;44.716;37.846;2023-03-23T17:09:25;21.90;;;9.10;;
75129;SDS011;63703;44.716;37.846;2023-03-23T17:11:51;32.05;;;9.40;;
75129;SDS011;63703;44.716;37.846;2023-03-23T17:14:18;23.40;;;8.40;;
75129;SDS011;63703;44.716;37.846;2023-03-23T17:16:45;26.67;;;11.88;;
75129;SDS011;63703;44.716;37.846;2023-03-23T17:19:11;28.40;;;12.43;;
75129;SDS011;63703;44.716;37.846;2023-03-23T17:21:38;30.73;;;12.73;;
75129;SDS011;63703;44.716;37.846;2023-03-23T17:24:05;23.35;;;10.93;;